Airfield :
LOGIN :

Register | Disclaimer

   EN    FR    IT 

 










Legend :    VFR   Marginal VFR   IFR   Intensive IFR   Very Intensive IFR
Visi :
Ceiling :
>= 8 km
>= 3000ft
5 to 8 km
1000 to 3000 ft
1500m to 5 km
500 to 1000 ft
800 to 1500m
200 to 500 ft
< 800m
< 200 ft
Symbols :   Thunderstorms  Fog  Heavy snow  Heavy precipitations  Wind > 20 kt
SIGMETs :     Misc.  Thunderstorms  Icing  Turbulence  Mountain Waves  Volcanic Ashes






- Airport Elevation : 124 ft
- IATA code : NHT


EGWU - RAF Northolt

CURRENT METAR :
  • 171850Z 22007KT 9999 -SHRA SCT025CB SCT050 10/09 Q1009 TEMPO 7000 SHRA RMK BLU TEMPO WHT

EXPIRED METARs :
  • 171821Z 24006KT 9999 -SHRA SCT025CB BKN050 11/09 Q1009 TEMPO 7000 SHRA SCT024 RMK BLU TEMPO WHT
  • 171750Z 31006KT 9999 -SHRA FEW025CB BKN050 12/09 Q1008 TEMPO 6000 SHRA BKN024
  • 171720Z 31003KT 9999 FEW024CB BKN050 11/10 Q1008 TEMPO 5000 SHRA
  • 171650Z 34006KT 9999 -SHRA BKN022CB BKN045 10/09 Q1008 TEMPO FEW024
  • 171634Z 34010KT 9999 SHRA BKN022CB 11/09 Q1008 TEMPO FEW022 RMK WHT TEMPO BLU
  • 171620Z 33014KT 6000 TSRA BKN020CB 11/09 Q1008 TEMPO 9999 NSW FEW020 RMK WHT TEMPO BLU

TAF TAF EGWU
Valid from the 17 at 18:00 until the 18 at 12:00 UTC


171641Z 1718/1812 29008KT 9999 BKN030
TEMPO 1718/1721 4000 +SHRA SHGS BKN022CB
PROB30
TEMPO 1718/1720 29015G25KT 3000 +TSRA
PROB30
TEMPO 1804/1806 SCT008
PROB30
TEMPO 1806/1810 SCT020



MET'MAP, your aeronautical weather chart ! - Copyright ORBIFLY December 2007 - Disclaimer

ORBIFLY MET'MAP TEAM :

Programming & Development : Alexandra Zaïnal
Concept & original design : Baudouin d'Aumeries
Assistance for programming : Marc-Olivier Méhu
Technical & hardware support : Manuel Goepfert

Contact : metmap@orbifly.com




SOURCES & CREDITS :

   NOAA